Angora, Minnesota
Current Conditions -  °F | °C
As of 9:55 AM on Wednesday 26 Nov 2014 (Local Time) from KCQM Reporting Station
Light Snow Light Snow  
Wind Chill:   Ceiling: 1700
Heat Index: 12°   Visibility: 7mi
Dew Point:   Wind: 7mph
Humidity: 79%   Direction: 320°NW
Pressure: 30.21"   Gusts: NA
Location:  47.77°N, 92.63°W
Report Text: KCQM 261555Z AUTO 32006KT 7SM -SN OVC017 M11/M14 A3021 RMK AO2
Loading
Personal Weather Stations






























Interactive Weather Map New forecast layout! Learn more

10-Day Weather Forecast

Advertisements
Track Severe Weather on mobile